sensor_id;sensor_type;location;lat;lon;timestamp;P1;durP1;ratioP1;P2;durP2;ratioP2
57055;SDS011;42945;51.718;5.324;2023-10-31T00:02:11;12.07;;;5.60;;
57055;SDS011;42945;51.718;5.324;2023-10-31T00:04:37;14.90;;;7.07;;
57055;SDS011;42945;51.718;5.324;2023-10-31T00:07:02;18.77;;;8.43;;
57055;SDS011;42945;51.718;5.324;2023-10-31T00:09:28;17.17;;;8.30;;
57055;SDS011;42945;51.718;5.324;2023-10-31T00:11:53;23.17;;;8.73;;
57055;SDS011;42945;51.718;5.324;2023-10-31T00:14:19;15.65;;;8.65;;
57055;SDS011;42945;51.718;5.324;2023-10-31T00:16:44;19.30;;;9.63;;
57055;SDS011;42945;51.718;5.324;2023-10-31T00:19:09;21.88;;;10.20;;
57055;SDS011;42945;51.718;5.324;2023-10-31T00:21:35;23.10;;;11.20;;
57055;SDS011;42945;51.718;5.324;2023-10-31T00:24:01;21.20;;;10.82;;
57055;SDS011;42945;51.718;5.324;2023-10-31T00:26:28;17.33;;;11.15;;
57055;SDS011;42945;51.718;5.324;2023-10-31T00:29:02;21.27;;;10.80;;
57055;SDS011;42945;51.718;5.324;2023-10-31T00:31:33;19.63;;;8.88;;
57055;SDS011;42945;51.718;5.324;2023-10-31T00:34:00;19.77;;;9.45;;
57055;SDS011;42945;51.718;5.324;2023-10-31T00:36:26;20.58;;;9.32;;
57055;SDS011;42945;51.718;5.324;2023-10-31T00:38:52;21.20;;;9.27;;
57055;SDS011;42945;51.718;5.324;2023-10-31T00:41:17;20.27;;;8.60;;
57055;SDS011;42945;51.718;5.324;2023-10-31T00:43:42;22.13;;;8.80;;
57055;SDS011;42945;51.718;5.324;2023-10-31T00:46:08;20.35;;;7.60;;
57055;SDS011;42945;51.718;5.324;2023-10-31T00:48:33;20.48;;;7.15;;
57055;SDS011;42945;51.718;5.324;2023-10-31T00:51:02;20.52;;;8.27;;
57055;SDS011;42945;51.718;5.324;2023-10-31T00:53:28;14.57;;;7.25;;
57055;SDS011;42945;51.718;5.324;2023-10-31T00:55:53;14.38;;;5.25;;
57055;SDS011;42945;51.718;5.324;2023-10-31T00:58:18;15.95;;;4.63;;
57055;SDS011;42945;51.718;5.324;2023-10-31T01:00:44;14.57;;;3.88;;
57055;SDS011;42945;51.718;5.324;2023-10-31T01:03:09;8.63;;;3.00;;
57055;SDS011;42945;51.718;5.324;2023-10-31T01:05:34;11.23;;;3.60;;
57055;SDS011;42945;51.718;5.324;2023-10-31T01:08:00;10.00;;;3.70;;
57055;SDS011;42945;51.718;5.324;2023-10-31T01:10:26;11.00;;;3.72;;
57055;SDS011;42945;51.718;5.324;2023-10-31T01:12:51;13.57;;;3.85;;
57055;SDS011;42945;51.718;5.324;2023-10-31T01:15:16;15.93;;;4.47;;
57055;SDS011;42945;51.718;5.324;2023-10-31T01:17:42;14.65;;;5.30;;
57055;SDS011;42945;51.718;5.324;2023-10-31T01:20:07;14.10;;;4.32;;
57055;SDS011;42945;51.718;5.324;2023-10-31T01:22:34;18.63;;;4.40;;
57055;SDS011;42945;51.718;5.324;2023-10-31T01:24:59;11.45;;;4.47;;
57055;SDS011;42945;51.718;5.324;2023-10-31T01:27:25;13.25;;;4.53;;
57055;SDS011;42945;51.718;5.324;2023-10-31T01:29:50;17.23;;;4.60;;
57055;SDS011;42945;51.718;5.324;2023-10-31T01:32:15;18.75;;;4.90;;
57055;SDS011;42945;51.718;5.324;2023-10-31T01:34:40;15.77;;;5.03;;
57055;SDS011;42945;51.718;5.324;2023-10-31T01:37:06;15.00;;;5.65;;
57055;SDS011;42945;51.718;5.324;2023-10-31T01:39:31;18.77;;;6.07;;
57055;SDS011;42945;51.718;5.324;2023-10-31T01:41:56;18.30;;;6.40;;
57055;SDS011;42945;51.718;5.324;2023-10-31T01:44:22;18.45;;;6.72;;
57055;SDS011;42945;51.718;5.324;2023-10-31T01:46:47;24.48;;;7.57;;
57055;SDS011;42945;51.718;5.324;2023-10-31T01:49:13;20.13;;;8.23;;
57055;SDS011;42945;51.718;5.324;2023-10-31T01:51:40;24.98;;;9.88;;
57055;SDS011;42945;51.718;5.324;2023-10-31T01:54:06;28.52;;;12.05;;
57055;SDS011;42945;51.718;5.324;2023-10-31T01:56:33;24.13;;;12.40;;
57055;SDS011;42945;51.718;5.324;2023-10-31T01:58:59;34.25;;;14.40;;
57055;SDS011;42945;51.718;5.324;2023-10-31T02:01:25;34.75;;;15.65;;
57055;SDS011;42945;51.718;5.324;2023-10-31T02:03:50;40.00;;;17.13;;
57055;SDS011;42945;51.718;5.324;2023-10-31T02:06:16;39.80;;;19.17;;
57055;SDS011;42945;51.718;5.324;2023-10-31T02:08:41;40.42;;;21.00;;
57055;SDS011;42945;51.718;5.324;2023-10-31T02:11:06;46.85;;;23.67;;
57055;SDS011;42945;51.718;5.324;2023-10-31T02:13:35;45.33;;;23.40;;
57055;SDS011;42945;51.718;5.324;2023-10-31T02:16:00;52.17;;;23.90;;
57055;SDS011;42945;51.718;5.324;2023-10-31T02:18:26;61.42;;;26.83;;
57055;SDS011;42945;51.718;5.324;2023-10-31T02:20:52;56.33;;;26.17;;
57055;SDS011;42945;51.718;5.324;2023-10-31T02:23:17;55.00;;;26.73;;
57055;SDS011;42945;51.718;5.324;2023-10-31T02:25:43;55.67;;;26.33;;
57055;SDS011;42945;51.718;5.324;2023-10-31T02:28:08;55.72;;;25.73;;
57055;SDS011;42945;51.718;5.324;2023-10-31T02:30:34;53.92;;;24.38;;
57055;SDS011;42945;51.718;5.324;2023-10-31T02:33:00;57.92;;;26.48;;
57055;SDS011;42945;51.718;5.324;2023-10-31T02:35:26;54.15;;;23.92;;
57055;SDS011;42945;51.718;5.324;2023-10-31T02:37:52;54.60;;;25.23;;
57055;SDS011;42945;51.718;5.324;2023-10-31T02:40:17;53.42;;;24.98;;
57055;SDS011;42945;51.718;5.324;2023-10-31T02:42:43;54.40;;;22.30;;
57055;SDS011;42945;51.718;5.324;2023-10-31T02:45:09;53.92;;;26.02;;
57055;SDS011;42945;51.718;5.324;2023-10-31T02:47:34;57.05;;;27.27;;
57055;SDS011;42945;51.718;5.324;2023-10-31T02:50:00;49.47;;;24.65;;
57055;SDS011;42945;51.718;5.324;2023-10-31T02:52:25;56.92;;;22.15;;
57055;SDS011;42945;51.718;5.324;2023-10-31T02:54:50;44.65;;;22.27;;
57055;SDS011;42945;51.718;5.324;2023-10-31T02:57:16;42.55;;;20.98;;
57055;SDS011;42945;51.718;5.324;2023-10-31T02:59:42;50.70;;;22.80;;
57055;SDS011;42945;51.718;5.324;2023-10-31T03:02:08;46.92;;;20.70;;
57055;SDS011;42945;51.718;5.324;2023-10-31T03:04:36;39.97;;;18.30;;
57055;SDS011;42945;51.718;5.324;2023-10-31T03:07:01;39.72;;;20.30;;
57055;SDS011;42945;51.718;5.324;2023-10-31T03:09:27;41.53;;;20.58;;
57055;SDS011;42945;51.718;5.324;2023-10-31T03:11:52;41.20;;;19.98;;
57055;SDS011;42945;51.718;5.324;2023-10-31T03:14:18;42.53;;;19.35;;
57055;SDS011;42945;51.718;5.324;2023-10-31T03:16:43;34.10;;;14.95;;
57055;SDS011;42945;51.718;5.324;2023-10-31T03:19:08;38.13;;;17.65;;
57055;SDS011;42945;51.718;5.324;2023-10-31T03:21:34;39.30;;;18.38;;
57055;SDS011;42945;51.718;5.324;2023-10-31T03:23:59;44.17;;;19.45;;
57055;SDS011;42945;51.718;5.324;2023-10-31T03:26:25;41.35;;;19.00;;
57055;SDS011;42945;51.718;5.324;2023-10-31T03:28:50;41.70;;;19.33;;
57055;SDS011;42945;51.718;5.324;2023-10-31T03:31:16;41.85;;;19.00;;
57055;SDS011;42945;51.718;5.324;2023-10-31T03:33:42;37.35;;;17.98;;
57055;SDS011;42945;51.718;5.324;2023-10-31T03:36:08;43.45;;;18.27;;
57055;SDS011;42945;51.718;5.324;2023-10-31T03:38:34;42.03;;;17.98;;
57055;SDS011;42945;51.718;5.324;2023-10-31T03:41:01;38.88;;;18.67;;
57055;SDS011;42945;51.718;5.324;2023-10-31T03:43:27;39.08;;;18.23;;
57055;SDS011;42945;51.718;5.324;2023-10-31T03:45:52;36.58;;;18.63;;
57055;SDS011;42945;51.718;5.324;2023-10-31T03:48:17;36.58;;;17.50;;
57055;SDS011;42945;51.718;5.324;2023-10-31T03:50:43;37.30;;;17.92;;
57055;SDS011;42945;51.718;5.324;2023-10-31T03:55:58;36.25;;;17.15;;
57055;SDS011;42945;51.718;5.324;2023-10-31T03:58:26;38.30;;;17.20;;
57055;SDS011;42945;51.718;5.324;2023-10-31T04:00:51;40.03;;;17.13;;
57055;SDS011;42945;51.718;5.324;2023-10-31T04:03:17;37.45;;;18.45;;
57055;SDS011;42945;51.718;5.324;2023-10-31T04:05:45;39.35;;;17.98;;
57055;SDS011;42945;51.718;5.324;2023-10-31T04:08:11;39.30;;;18.30;;
57055;SDS011;42945;51.718;5.324;2023-10-31T04:10:36;38.17;;;16.27;;
57055;SDS011;42945;51.718;5.324;2023-10-31T04:13:01;33.05;;;15.63;;
57055;SDS011;42945;51.718;5.324;2023-10-31T04:18:24;35.53;;;16.42;;
57055;SDS011;42945;51.718;5.324;2023-10-31T04:20:49;37.55;;;18.02;;
57055;SDS011;42945;51.718;5.324;2023-10-31T04:23:14;38.55;;;17.88;;
57055;SDS011;42945;51.718;5.324;2023-10-31T04:25:40;38.22;;;18.50;;
57055;SDS011;42945;51.718;5.324;2023-10-31T04:28:05;39.40;;;18.25;;
57055;SDS011;42945;51.718;5.324;2023-10-31T04:30:30;38.92;;;17.63;;
57055;SDS011;42945;51.718;5.324;2023-10-31T04:32:56;40.35;;;19.55;;
57055;SDS011;42945;51.718;5.324;2023-10-31T04:35:21;40.13;;;19.52;;
57055;SDS011;42945;51.718;5.324;2023-10-31T04:37:46;48.63;;;20.38;;
57055;SDS011;42945;51.718;5.324;2023-10-31T04:40:12;41.45;;;19.38;;
57055;SDS011;42945;51.718;5.324;2023-10-31T04:42:41;40.60;;;19.65;;
57055;SDS011;42945;51.718;5.324;2023-10-31T04:45:07;40.83;;;17.67;;
57055;SDS011;42945;51.718;5.324;2023-10-31T04:47:33;44.13;;;19.30;;
57055;SDS011;42945;51.718;5.324;2023-10-31T04:49:58;37.00;;;18.67;;
57055;SDS011;42945;51.718;5.324;2023-10-31T04:52:23;36.60;;;17.48;;
57055;SDS011;42945;51.718;5.324;2023-10-31T04:54:51;42.63;;;18.27;;
57055;SDS011;42945;51.718;5.324;2023-10-31T04:57:16;37.05;;;16.88;;
57055;SDS011;42945;51.718;5.324;2023-10-31T04:59:41;38.38;;;17.75;;
57055;SDS011;42945;51.718;5.324;2023-10-31T05:02:07;35.38;;;17.10;;
57055;SDS011;42945;51.718;5.324;2023-10-31T05:04:32;39.42;;;18.45;;
57055;SDS011;42945;51.718;5.324;2023-10-31T05:06:58;35.65;;;15.98;;
57055;SDS011;42945;51.718;5.324;2023-10-31T05:09:23;34.60;;;16.70;;
57055;SDS011;42945;51.718;5.324;2023-10-31T05:11:48;38.22;;;15.75;;
57055;SDS011;42945;51.718;5.324;2023-10-31T05:14:14;35.67;;;16.30;;
57055;SDS011;42945;51.718;5.324;2023-10-31T05:16:40;36.47;;;17.05;;
57055;SDS011;42945;51.718;5.324;2023-10-31T05:19:11;36.00;;;15.43;;
57055;SDS011;42945;51.718;5.324;2023-10-31T05:21:37;34.58;;;15.30;;
57055;SDS011;42945;51.718;5.324;2023-10-31T05:24:02;35.88;;;15.95;;
57055;SDS011;42945;51.718;5.324;2023-10-31T05:26:28;38.35;;;17.10;;
57055;SDS011;42945;51.718;5.324;2023-10-31T05:28:54;36.05;;;16.67;;
57055;SDS011;42945;51.718;5.324;2023-10-31T05:31:21;44.10;;;19.58;;
57055;SDS011;42945;51.718;5.324;2023-10-31T05:33:46;40.83;;;18.33;;
57055;SDS011;42945;51.718;5.324;2023-10-31T05:36:21;47.55;;;19.83;;
57055;SDS011;42945;51.718;5.324;2023-10-31T05:38:47;40.15;;;19.00;;
57055;SDS011;42945;51.718;5.324;2023-10-31T05:41:13;42.97;;;18.90;;
57055;SDS011;42945;51.718;5.324;2023-10-31T05:43:39;41.22;;;19.35;;
57055;SDS011;42945;51.718;5.324;2023-10-31T05:46:04;41.85;;;18.58;;
57055;SDS011;42945;51.718;5.324;2023-10-31T05:48:30;39.15;;;18.77;;
57055;SDS011;42945;51.718;5.324;2023-10-31T05:50:56;37.45;;;18.55;;
57055;SDS011;42945;51.718;5.324;2023-10-31T05:53:21;45.20;;;20.42;;
57055;SDS011;42945;51.718;5.324;2023-10-31T05:55:46;44.65;;;19.70;;
57055;SDS011;42945;51.718;5.324;2023-10-31T05:58:12;45.50;;;21.00;;
57055;SDS011;42945;51.718;5.324;2023-10-31T06:00:37;41.38;;;19.92;;
57055;SDS011;42945;51.718;5.324;2023-10-31T06:03:03;48.53;;;20.77;;
57055;SDS011;42945;51.718;5.324;2023-10-31T06:05:28;47.47;;;22.13;;
57055;SDS011;42945;51.718;5.324;2023-10-31T06:07:53;47.35;;;23.00;;
57055;SDS011;42945;51.718;5.324;2023-10-31T06:10:18;41.38;;;21.98;;
57055;SDS011;42945;51.718;5.324;2023-10-31T06:12:45;49.85;;;23.08;;
57055;SDS011;42945;51.718;5.324;2023-10-31T06:15:10;44.25;;;19.67;;
57055;SDS011;42945;51.718;5.324;2023-10-31T06:17:35;43.28;;;20.73;;
57055;SDS011;42945;51.718;5.324;2023-10-31T06:20:01;43.60;;;21.85;;
57055;SDS011;42945;51.718;5.324;2023-10-31T06:22:27;46.53;;;21.33;;
57055;SDS011;42945;51.718;5.324;2023-10-31T06:24:53;45.22;;;21.92;;
57055;SDS011;42945;51.718;5.324;2023-10-31T06:27:18;41.88;;;21.23;;
57055;SDS011;42945;51.718;5.324;2023-10-31T06:29:44;43.17;;;20.92;;
57055;SDS011;42945;51.718;5.324;2023-10-31T06:32:09;44.92;;;20.85;;
57055;SDS011;42945;51.718;5.324;2023-10-31T06:34:34;38.03;;;18.13;;
57055;SDS011;42945;51.718;5.324;2023-10-31T06:37:00;37.28;;;18.83;;
57055;SDS011;42945;51.718;5.324;2023-10-31T06:39:25;36.95;;;17.85;;
57055;SDS011;42945;51.718;5.324;2023-10-31T06:41:53;34.25;;;19.52;;
57055;SDS011;42945;51.718;5.324;2023-10-31T06:44:19;34.70;;;17.92;;
57055;SDS011;42945;51.718;5.324;2023-10-31T06:46:45;36.03;;;17.13;;
57055;SDS011;42945;51.718;5.324;2023-10-31T06:49:10;36.92;;;18.10;;
57055;SDS011;42945;51.718;5.324;2023-10-31T06:51:35;36.72;;;17.17;;
57055;SDS011;42945;51.718;5.324;2023-10-31T06:54:01;35.72;;;18.90;;
57055;SDS011;42945;51.718;5.324;2023-10-31T06:56:26;33.38;;;17.38;;
57055;SDS011;42945;51.718;5.324;2023-10-31T06:58:53;30.83;;;16.25;;
57055;SDS011;42945;51.718;5.324;2023-10-31T07:01:19;30.38;;;17.75;;
57055;SDS011;42945;51.718;5.324;2023-10-31T07:03:47;33.03;;;17.42;;
57055;SDS011;42945;51.718;5.324;2023-10-31T07:06:12;30.52;;;16.38;;
57055;SDS011;42945;51.718;5.324;2023-10-31T07:08:38;35.22;;;16.92;;
57055;SDS011;42945;51.718;5.324;2023-10-31T07:11:03;32.70;;;17.27;;
57055;SDS011;42945;51.718;5.324;2023-10-31T07:13:30;28.92;;;16.95;;
57055;SDS011;42945;51.718;5.324;2023-10-31T07:15:56;29.38;;;17.50;;
57055;SDS011;42945;51.718;5.324;2023-10-31T07:18:21;30.25;;;17.02;;
57055;SDS011;42945;51.718;5.324;2023-10-31T07:20:46;26.83;;;16.80;;
57055;SDS011;42945;51.718;5.324;2023-10-31T07:23:11;30.17;;;15.88;;
57055;SDS011;42945;51.718;5.324;2023-10-31T07:25:37;25.80;;;16.38;;
57055;SDS011;42945;51.718;5.324;2023-10-31T07:28:02;28.73;;;15.95;;
57055;SDS011;42945;51.718;5.324;2023-10-31T07:30:27;28.08;;;16.45;;
57055;SDS011;42945;51.718;5.324;2023-10-31T07:32:53;24.80;;;14.98;;
57055;SDS011;42945;51.718;5.324;2023-10-31T07:35:18;27.75;;;15.50;;
57055;SDS011;42945;51.718;5.324;2023-10-31T07:37:44;28.38;;;16.25;;
57055;SDS011;42945;51.718;5.324;2023-10-31T07:40:10;30.17;;;16.23;;
57055;SDS011;42945;51.718;5.324;2023-10-31T07:42:36;26.50;;;17.02;;
57055;SDS011;42945;51.718;5.324;2023-10-31T07:45:01;34.38;;;17.77;;
57055;SDS011;42945;51.718;5.324;2023-10-31T07:47:27;31.70;;;17.42;;
57055;SDS011;42945;51.718;5.324;2023-10-31T07:49:52;29.17;;;18.50;;
57055;SDS011;42945;51.718;5.324;2023-10-31T07:52:18;30.55;;;17.63;;
57055;SDS011;42945;51.718;5.324;2023-10-31T07:54:43;31.77;;;18.10;;
57055;SDS011;42945;51.718;5.324;2023-10-31T07:57:09;30.83;;;17.95;;
57055;SDS011;42945;51.718;5.324;2023-10-31T07:59:34;30.23;;;17.90;;
57055;SDS011;42945;51.718;5.324;2023-10-31T08:02:00;29.50;;;18.35;;
57055;SDS011;42945;51.718;5.324;2023-10-31T08:04:25;34.45;;;19.63;;
57055;SDS011;42945;51.718;5.324;2023-10-31T08:06:50;34.80;;;19.63;;
57055;SDS011;42945;51.718;5.324;2023-10-31T08:09:16;36.67;;;20.40;;
57055;SDS011;42945;51.718;5.324;2023-10-31T08:11:41;31.63;;;19.15;;
57055;SDS011;42945;51.718;5.324;2023-10-31T08:14:07;33.80;;;19.90;;
57055;SDS011;42945;51.718;5.324;2023-10-31T08:16:32;41.10;;;21.20;;
57055;SDS011;42945;51.718;5.324;2023-10-31T08:18:57;36.95;;;21.23;;
57055;SDS011;42945;51.718;5.324;2023-10-31T08:21:23;32.47;;;19.85;;
57055;SDS011;42945;51.718;5.324;2023-10-31T08:23:48;33.80;;;19.90;;
57055;SDS011;42945;51.718;5.324;2023-10-31T08:26:13;36.83;;;19.98;;
57055;SDS011;42945;51.718;5.324;2023-10-31T08:28:39;44.08;;;20.77;;
57055;SDS011;42945;51.718;5.324;2023-10-31T08:31:04;28.15;;;19.13;;
57055;SDS011;42945;51.718;5.324;2023-10-31T08:33:30;31.52;;;19.35;;
57055;SDS011;42945;51.718;5.324;2023-10-31T08:35:55;32.70;;;19.92;;
57055;SDS011;42945;51.718;5.324;2023-10-31T08:38:20;31.88;;;19.13;;
57055;SDS011;42945;51.718;5.324;2023-10-31T08:40:46;30.00;;;18.35;;
57055;SDS011;42945;51.718;5.324;2023-10-31T08:43:12;30.17;;;18.20;;
57055;SDS011;42945;51.718;5.324;2023-10-31T08:45:37;27.63;;;17.27;;
57055;SDS011;42945;51.718;5.324;2023-10-31T08:48:03;30.08;;;17.05;;
57055;SDS011;42945;51.718;5.324;2023-10-31T08:50:29;29.75;;;16.05;;
57055;SDS011;42945;51.718;5.324;2023-10-31T08:52:54;27.60;;;16.02;;
57055;SDS011;42945;51.718;5.324;2023-10-31T08:55:19;29.42;;;15.90;;
57055;SDS011;42945;51.718;5.324;2023-10-31T08:57:45;26.98;;;16.95;;
57055;SDS011;42945;51.718;5.324;2023-10-31T09:00:11;24.67;;;16.30;;
57055;SDS011;42945;51.718;5.324;2023-10-31T09:02:38;26.92;;;15.93;;
57055;SDS011;42945;51.718;5.324;2023-10-31T09:05:03;32.28;;;17.35;;
57055;SDS011;42945;51.718;5.324;2023-10-31T09:07:38;26.67;;;15.85;;
57055;SDS011;42945;51.718;5.324;2023-10-31T09:10:03;25.30;;;16.08;;
57055;SDS011;42945;51.718;5.324;2023-10-31T09:12:30;30.00;;;18.45;;
57055;SDS011;42945;51.718;5.324;2023-10-31T09:14:55;31.05;;;18.75;;
57055;SDS011;42945;51.718;5.324;2023-10-31T09:17:21;31.23;;;20.45;;
57055;SDS011;42945;51.718;5.324;2023-10-31T09:19:46;31.02;;;19.42;;
57055;SDS011;42945;51.718;5.324;2023-10-31T09:22:14;42.28;;;19.20;;
57055;SDS011;42945;51.718;5.324;2023-10-31T09:24:39;32.35;;;21.77;;
57055;SDS011;42945;51.718;5.324;2023-10-31T09:27:05;35.75;;;21.23;;
57055;SDS011;42945;51.718;5.324;2023-10-31T09:29:31;39.92;;;22.67;;
57055;SDS011;42945;51.718;5.324;2023-10-31T09:31:56;38.08;;;22.52;;
57055;SDS011;42945;51.718;5.324;2023-10-31T09:34:21;37.97;;;22.40;;
57055;SDS011;42945;51.718;5.324;2023-10-31T09:36:47;36.95;;;20.42;;
57055;SDS011;42945;51.718;5.324;2023-10-31T09:39:12;41.25;;;24.38;;
57055;SDS011;42945;51.718;5.324;2023-10-31T09:41:37;42.15;;;21.15;;
57055;SDS011;42945;51.718;5.324;2023-10-31T09:44:03;41.92;;;23.45;;
57055;SDS011;42945;51.718;5.324;2023-10-31T09:46:28;39.72;;;22.67;;
57055;SDS011;42945;51.718;5.324;2023-10-31T09:48:54;47.30;;;24.20;;
57055;SDS011;42945;51.718;5.324;2023-10-31T09:51:20;45.78;;;24.30;;
57055;SDS011;42945;51.718;5.324;2023-10-31T09:53:46;43.60;;;23.15;;
57055;SDS011;42945;51.718;5.324;2023-10-31T09:56:12;44.83;;;24.60;;
57055;SDS011;42945;51.718;5.324;2023-10-31T09:58:39;48.53;;;26.30;;
57055;SDS011;42945;51.718;5.324;2023-10-31T10:01:06;42.42;;;23.40;;
57055;SDS011;42945;51.718;5.324;2023-10-31T10:03:32;47.42;;;22.38;;
57055;SDS011;42945;51.718;5.324;2023-10-31T10:05:58;42.20;;;23.17;;
57055;SDS011;42945;51.718;5.324;2023-10-31T10:08:24;43.10;;;22.27;;
57055;SDS011;42945;51.718;5.324;2023-10-31T10:10:49;42.58;;;23.02;;
57055;SDS011;42945;51.718;5.324;2023-10-31T10:13:19;48.30;;;22.63;;
57055;SDS011;42945;51.718;5.324;2023-10-31T10:15:49;45.92;;;21.98;;
57055;SDS011;42945;51.718;5.324;2023-10-31T10:18:28;43.65;;;23.52;;
57055;SDS011;42945;51.718;5.324;2023-10-31T10:20:58;41.20;;;21.00;;
57055;SDS011;42945;51.718;5.324;2023-10-31T10:23:24;41.53;;;21.25;;
57055;SDS011;42945;51.718;5.324;2023-10-31T10:25:54;42.88;;;21.63;;
57055;SDS011;42945;51.718;5.324;2023-10-31T10:28:24;44.00;;;21.83;;
57055;SDS011;42945;51.718;5.324;2023-10-31T10:30:50;45.03;;;20.88;;
57055;SDS011;42945;51.718;5.324;2023-10-31T10:33:17;46.30;;;21.48;;
57055;SDS011;42945;51.718;5.324;2023-10-31T10:35:43;43.40;;;20.95;;
57055;SDS011;42945;51.718;5.324;2023-10-31T10:38:16;49.17;;;23.23;;
57055;SDS011;42945;51.718;5.324;2023-10-31T10:40:47;41.92;;;19.77;;
57055;SDS011;42945;51.718;5.324;2023-10-31T10:43:21;51.20;;;21.95;;
57055;SDS011;42945;51.718;5.324;2023-10-31T10:48:27;40.80;;;20.92;;
57055;SDS011;42945;51.718;5.324;2023-10-31T10:53:41;43.67;;;20.33;;
57055;SDS011;42945;51.718;5.324;2023-10-31T10:56:16;42.28;;;21.73;;
57055;SDS011;42945;51.718;5.324;2023-10-31T10:59:00;41.50;;;18.27;;
57055;SDS011;42945;51.718;5.324;2023-10-31T11:01:31;39.83;;;18.75;;
57055;SDS011;42945;51.718;5.324;2023-10-31T11:03:59;38.90;;;17.17;;
57055;SDS011;42945;51.718;5.324;2023-10-31T11:06:26;37.88;;;18.50;;
57055;SDS011;42945;51.718;5.324;2023-10-31T11:08:52;35.83;;;17.13;;
57055;SDS011;42945;51.718;5.324;2023-10-31T11:11:18;35.47;;;18.00;;
57055;SDS011;42945;51.718;5.324;2023-10-31T11:13:45;35.28;;;18.48;;
57055;SDS011;42945;51.718;5.324;2023-10-31T11:16:15;33.97;;;19.25;;
57055;SDS011;42945;51.718;5.324;2023-10-31T11:18:49;35.70;;;16.95;;
57055;SDS011;42945;51.718;5.324;2023-10-31T11:21:15;36.15;;;18.83;;
57055;SDS011;42945;51.718;5.324;2023-10-31T11:23:40;33.13;;;17.92;;
57055;SDS011;42945;51.718;5.324;2023-10-31T11:26:09;34.42;;;15.93;;
57055;SDS011;42945;51.718;5.324;2023-10-31T11:28:34;35.05;;;19.23;;
57055;SDS011;42945;51.718;5.324;2023-10-31T11:31:01;33.13;;;17.52;;
57055;SDS011;42945;51.718;5.324;2023-10-31T11:33:27;32.95;;;16.45;;
57055;SDS011;42945;51.718;5.324;2023-10-31T11:35:59;36.92;;;19.70;;
57055;SDS011;42945;51.718;5.324;2023-10-31T11:38:34;34.80;;;15.82;;
57055;SDS011;42945;51.718;5.324;2023-10-31T11:41:01;29.13;;;15.57;;
57055;SDS011;42945;51.718;5.324;2023-10-31T11:46:05;35.25;;;16.65;;
57055;SDS011;42945;51.718;5.324;2023-10-31T11:48:46;35.83;;;16.02;;
57055;SDS011;42945;51.718;5.324;2023-10-31T11:51:13;32.13;;;17.85;;
57055;SDS011;42945;51.718;5.324;2023-10-31T11:53:39;35.17;;;17.95;;
57055;SDS011;42945;51.718;5.324;2023-10-31T11:56:05;35.22;;;17.73;;
57055;SDS011;42945;51.718;5.324;2023-10-31T11:58:31;35.40;;;17.23;;
57055;SDS011;42945;51.718;5.324;2023-10-31T12:01:03;33.30;;;17.42;;
57055;SDS011;42945;51.718;5.324;2023-10-31T12:03:36;33.42;;;19.08;;
57055;SDS011;42945;51.718;5.324;2023-10-31T12:06:02;32.92;;;19.05;;
57055;SDS011;42945;51.718;5.324;2023-10-31T12:08:32;40.38;;;20.55;;
57055;SDS011;42945;51.718;5.324;2023-10-31T12:13:38;36.20;;;20.52;;
57055;SDS011;42945;51.718;5.324;2023-10-31T12:16:05;34.80;;;18.75;;
57055;SDS011;42945;51.718;5.324;2023-10-31T12:18:33;31.83;;;17.90;;
57055;SDS011;42945;51.718;5.324;2023-10-31T12:21:00;29.38;;;16.60;;
57055;SDS011;42945;51.718;5.324;2023-10-31T12:23:25;32.25;;;16.67;;
57055;SDS011;42945;51.718;5.324;2023-10-31T12:25:51;34.88;;;18.65;;
57055;SDS011;42945;51.718;5.324;2023-10-31T12:28:20;31.75;;;17.50;;
57055;SDS011;42945;51.718;5.324;2023-10-31T12:30:47;29.23;;;17.10;;
57055;SDS011;42945;51.718;5.324;2023-10-31T12:33:13;32.78;;;16.77;;
57055;SDS011;42945;51.718;5.324;2023-10-31T12:35:39;31.30;;;16.98;;
57055;SDS011;42945;51.718;5.324;2023-10-31T12:38:05;29.67;;;15.80;;
57055;SDS011;42945;51.718;5.324;2023-10-31T12:40:31;25.15;;;14.73;;
57055;SDS011;42945;51.718;5.324;2023-10-31T12:42:57;26.73;;;14.45;;
57055;SDS011;42945;51.718;5.324;2023-10-31T12:45:22;28.05;;;15.77;;
57055;SDS011;42945;51.718;5.324;2023-10-31T12:48:01;24.38;;;13.07;;
57055;SDS011;42945;51.718;5.324;2023-10-31T12:50:28;23.58;;;12.02;;
57055;SDS011;42945;51.718;5.324;2023-10-31T12:52:54;21.77;;;13.18;;
57055;SDS011;42945;51.718;5.324;2023-10-31T12:55:23;24.83;;;13.88;;
57055;SDS011;42945;51.718;5.324;2023-10-31T12:57:49;22.70;;;13.23;;
57055;SDS011;42945;51.718;5.324;2023-10-31T13:00:17;19.23;;;12.70;;
57055;SDS011;42945;51.718;5.324;2023-10-31T13:02:51;23.52;;;13.32;;
57055;SDS011;42945;51.718;5.324;2023-10-31T13:05:24;23.38;;;12.52;;
57055;SDS011;42945;51.718;5.324;2023-10-31T13:07:51;20.65;;;11.98;;
57055;SDS011;42945;51.718;5.324;2023-10-31T13:10:18;19.75;;;12.05;;
57055;SDS011;42945;51.718;5.324;2023-10-31T13:12:45;20.30;;;11.55;;
57055;SDS011;42945;51.718;5.324;2023-10-31T13:15:14;19.33;;;9.75;;
57055;SDS011;42945;51.718;5.324;2023-10-31T13:17:40;15.32;;;9.70;;
57055;SDS011;42945;51.718;5.324;2023-10-31T13:20:09;14.32;;;9.27;;
57055;SDS011;42945;51.718;5.324;2023-10-31T13:22:36;12.90;;;8.82;;
57055;SDS011;42945;51.718;5.324;2023-10-31T13:25:03;13.23;;;7.35;;
57055;SDS011;42945;51.718;5.324;2023-10-31T13:27:39;14.95;;;7.43;;
57055;SDS011;42945;51.718;5.324;2023-10-31T13:30:16;13.65;;;8.00;;
57055;SDS011;42945;51.718;5.324;2023-10-31T13:32:43;11.88;;;6.68;;
57055;SDS011;42945;51.718;5.324;2023-10-31T13:35:08;10.32;;;6.65;;
57055;SDS011;42945;51.718;5.324;2023-10-31T13:37:39;11.20;;;5.68;;
57055;SDS011;42945;51.718;5.324;2023-10-31T13:40:04;10.05;;;5.78;;
57055;SDS011;42945;51.718;5.324;2023-10-31T13:42:30;12.95;;;6.40;;
57055;SDS011;42945;51.718;5.324;2023-10-31T13:44:55;10.90;;;5.60;;
57055;SDS011;42945;51.718;5.324;2023-10-31T13:47:21;10.77;;;6.10;;
57055;SDS011;42945;51.718;5.324;2023-10-31T13:49:46;10.40;;;6.72;;
57055;SDS011;42945;51.718;5.324;2023-10-31T13:52:12;10.63;;;5.53;;
57055;SDS011;42945;51.718;5.324;2023-10-31T13:54:37;11.65;;;5.90;;
57055;SDS011;42945;51.718;5.324;2023-10-31T13:57:03;11.70;;;5.35;;
57055;SDS011;42945;51.718;5.324;2023-10-31T13:59:29;13.60;;;5.80;;
57055;SDS011;42945;51.718;5.324;2023-10-31T14:01:55;8.27;;;5.53;;
57055;SDS011;42945;51.718;5.324;2023-10-31T14:04:20;12.15;;;5.63;;
57055;SDS011;42945;51.718;5.324;2023-10-31T14:06:46;8.48;;;5.45;;
57055;SDS011;42945;51.718;5.324;2023-10-31T14:09:12;8.32;;;5.28;;
57055;SDS011;42945;51.718;5.324;2023-10-31T14:11:37;10.60;;;5.60;;
57055;SDS011;42945;51.718;5.324;2023-10-31T14:14:04;7.05;;;4.78;;
57055;SDS011;42945;51.718;5.324;2023-10-31T14:16:38;10.35;;;4.80;;
57055;SDS011;42945;51.718;5.324;2023-10-31T14:19:05;9.25;;;4.85;;
57055;SDS011;42945;51.718;5.324;2023-10-31T14:21:32;12.75;;;5.20;;
57055;SDS011;42945;51.718;5.324;2023-10-31T14:23:57;12.50;;;4.82;;
57055;SDS011;42945;51.718;5.324;2023-10-31T14:26:23;11.50;;;4.68;;
57055;SDS011;42945;51.718;5.324;2023-10-31T14:28:49;9.32;;;4.05;;
57055;SDS011;42945;51.718;5.324;2023-10-31T14:31:18;11.60;;;4.03;;
57055;SDS011;42945;51.718;5.324;2023-10-31T14:33:44;8.95;;;3.90;;
57055;SDS011;42945;51.718;5.324;2023-10-31T14:36:09;9.80;;;3.78;;